Time;durP1;ratioP1;P1;durP2;ratioP2;P2;SDS_P1;SDS_P2;PMS_P1;PMS_P2;Temp;Humidity;BMP_temperature;BMP_pressure;BME280_temperature;BME280_humidity;BME280_pressure;Samples;Min_cycle;Max_cycle;Signal;HPM_P1;HPM_P2
2022/10/14 00:00:04;;;;;;;14.57;9.70;;;;;;;6.74;100.00;100911.44;4954268;28;20039;-83
2022/10/14 00:02:30;;;;;;;14.63;10.30;;;;;;;6.76;100.00;100914.94;4938504;28;20043;-83
2022/10/14 00:04:57;;;;;;;17.77;10.63;;;;;;;6.79;100.00;100908.81;4939618;28;20046;-84
2022/10/14 00:07:24;;;;;;;19.23;11.73;;;;;;;6.87;100.00;100914.06;4956461;28;20050;-84
2022/10/14 00:09:50;;;;;;;16.40;11.63;;;;;;;6.83;100.00;100900.06;4940579;28;20042;-83
2022/10/14 00:12:17;;;;;;;20.30;12.27;;;;;;;6.86;100.00;100900.03;4940564;28;20038;-83
2022/10/14 00:14:43;;;;;;;16.73;10.40;;;;;;;6.87;100.00;100899.16;4939439;28;20077;-84
2022/10/14 00:17:10;;;;;;;19.93;12.20;;;;;;;6.85;100.00;100900.06;4957469;28;20078;-82
2022/10/14 00:19:37;;;;;;;16.90;10.93;;;;;;;6.88;100.00;100907.91;4947203;28;20035;-81
2022/10/14 00:22:03;;;;;;;18.23;11.63;;;;;;;6.84;100.00;100900.94;4945174;28;20042;-81
2022/10/14 00:24:30;;;;;;;20.97;11.87;;;;;;;6.82;100.00;100905.31;4946102;28;20057;-80
2022/10/14 00:26:57;;;;;;;18.87;11.50;;;;;;;6.82;100.00;100897.44;4962156;28;20398;-82
2022/10/14 00:29:24;;;;;;;18.10;10.83;;;;;;;6.89;100.00;100905.28;4946075;28;20035;-82
2022/10/14 00:31:52;;;;;;;23.80;11.77;;;;;;;6.94;100.00;100900.03;4972589;28;20054;-81
2022/10/14 00:34:19;;;;;;;17.30;11.03;;;;;;;6.89;100.00;100905.28;4975707;28;20050;-81
2022/10/14 00:36:45;;;;;;;18.17;11.23;;;;;;;6.85;100.00;100886.94;4941858;28;20043;-83
2022/10/14 00:39:12;;;;;;;16.97;10.60;;;;;;;6.86;100.00;100891.28;4946050;28;20042;-80
2022/10/14 00:41:39;;;;;;;16.23;10.60;;;;;;;6.86;100.00;100886.91;4937127;28;20038;-83
2022/10/14 00:44:25;;;;;;;14.90;10.50;;;;;;;6.91;100.00;100892.19;4935405;28;20106;-81
2022/10/14 00:46:53;;;;;;;18.97;12.00;;;;;;;6.89;100.00;100888.66;4969325;28;20055;-81
2022/10/14 00:49:27;;;;;;;17.00;11.60;;;;;;;6.83;100.00;100886.94;4960672;28;20086;-82
2022/10/14 00:51:57;;;;;;;18.87;10.87;;;;;;;6.80;100.00;100889.53;4941174;28;20042;-79
2022/10/14 00:54:29;;;;;;;15.13;9.67;;;;;;;6.83;100.00;100886.06;4953184;28;20408;-81
2022/10/14 00:56:55;;;;;;;17.73;11.47;;;;;;;6.86;100.00;100893.94;4975355;28;20043;-82
2022/10/14 00:59:23;;;;;;;16.23;10.17;;;;;;;6.82;100.00;100897.44;4959744;28;20080;-81
2022/10/14 01:01:49;;;;;;;18.10;10.47;;;;;;;6.76;100.00;100895.69;4975390;28;20117;-80
2022/10/14 01:04:16;;;;;;;15.43;10.40;;;;;;;6.76;100.00;100882.56;4954396;28;20054;-82
2022/10/14 01:06:59;;;;;;;16.67;10.63;;;;;;;6.78;100.00;100889.56;4942150;28;20097;-80
2022/10/14 01:09:37;;;;;;;18.13;11.27;;;;;;;6.80;100.00;100888.66;4957592;28;20043;-82
2022/10/14 01:12:20;;;;;;;19.13;12.80;;;;;;;6.79;100.00;100890.44;4957146;28;20053;-80
2022/10/14 01:15:37;;;;;;;17.37;11.10;;;;;;;6.74;100.00;100887.81;4957094;28;20141;-80
2022/10/14 01:18:10;;;;;;;18.10;10.57;;;;;;;6.77;100.00;100881.69;4920261;28;20707;-80
2022/10/14 01:20:45;;;;;;;16.47;10.47;;;;;;;6.68;100.00;100879.06;4975464;28;20059;-80
2022/10/14 01:23:34;;;;;;;16.43;10.20;;;;;;;6.65;100.00;100877.34;4953997;28;20055;-80
2022/10/14 01:26:39;;;;;;;21.20;10.67;;;;;;;6.64;100.00;100878.22;4977059;28;20043;-80
2022/10/14 01:29:21;;;;;;;17.80;9.93;;;;;;;6.68;100.00;100887.81;4952407;28;20043;-80
2022/10/14 01:31:51;;;;;;;16.83;10.67;;;;;;;6.66;100.00;100886.09;4938595;28;20039;-81
2022/10/14 01:34:24;;;;;;;15.97;10.37;;;;;;;6.71;100.00;100886.94;4951922;28;20042;-81
2022/10/14 01:36:57;;;;;;;15.30;10.33;;;;;;;6.75;100.00;100880.81;4969575;28;20051;-81
2022/10/14 01:39:32;;;;;;;17.80;11.90;;;;;;;6.78;100.00;100879.03;4966738;28;20050;-81
2022/10/14 01:42:03;;;;;;;17.13;11.80;;;;;;;6.86;100.00;100881.66;4968854;28;20038;-82
2022/10/14 01:44:31;;;;;;;18.23;12.70;;;;;;;6.92;100.00;100884.28;4966668;28;20042;-81
2022/10/14 01:46:59;;;;;;;17.97;11.90;;;;;;;6.94;100.00;100881.66;4964213;28;20051;-81
2022/10/14 01:49:41;;;;;;;17.63;12.60;;;;;;;6.98;100.00;100880.78;4948233;28;20043;-81
2022/10/14 01:52:12;;;;;;;21.03;12.00;;;;;;;6.95;100.00;100881.66;4966678;28;20063;-82
2022/10/14 01:54:40;;;;;;;18.90;10.97;;;;;;;6.94;100.00;100885.16;4969932;28;20058;-83
2022/10/14 01:57:10;;;;;;;18.47;11.57;;;;;;;6.96;100.00;100875.50;4967924;28;20756;-83
2022/10/14 01:59:37;;;;;;;19.67;12.03;;;;;;;6.97;100.00;100874.63;4979213;28;20101;-84
2022/10/14 02:02:04;;;;;;;17.17;11.83;;;;;;;7.00;100.00;100860.63;4941662;29;20046;-83
2022/10/14 02:04:31;;;;;;;17.53;11.63;;;;;;;7.11;100.00;100860.59;4942202;28;20145;-81
2022/10/14 02:07:24;;;;;;;19.53;12.37;;;;;;;7.08;100.00;100863.25;4950167;28;20042;-81
2022/10/14 02:10:28;;;;;;;15.20;9.87;;;;;;;7.08;100.00;100865.88;4946947;28;20377;-80
2022/10/14 02:13:08;;;;;;;16.33;11.25;;;;;;;7.11;100.00;100861.47;4972811;28;20049;-81
2022/10/14 02:15:44;;;;;;;21.17;11.93;;;;;;;7.14;100.00;100863.19;4956364;28;20440;-81
2022/10/14 02:18:21;;;;;;;14.80;11.10;;;;;;;7.19;100.00;100862.31;4942625;28;20050;-80
2022/10/14 02:21:18;;;;;;;23.00;13.67;;;;;;;7.18;100.00;100863.19;4942516;28;20086;-81
2022/10/14 02:23:56;;;;;;;20.87;13.57;;;;;;;7.15;100.00;100857.09;4952873;28;20034;-81
2022/10/14 02:26:23;;;;;;;21.93;12.57;;;;;;;7.18;100.00;100865.81;4935622;28;20421;-81
2022/10/14 02:28:51;;;;;;;18.30;12.57;;;;;;;7.19;100.00;100867.56;4939211;28;20035;-81
2022/10/14 02:31:19;;;;;;;20.30;12.43;;;;;;;7.22;100.00;100864.91;4959032;28;20046;-81
2022/10/14 02:33:51;;;;;;;20.17;12.30;;;;;;;7.23;100.00;100869.31;4942067;28;20134;-81
2022/10/14 02:36:21;;;;;;;18.97;12.20;;;;;;;7.25;100.00;100871.94;4954028;28;20477;-81
2022/10/14 02:38:48;;;;;;;19.00;11.77;;;;;;;7.26;100.00;100863.19;4944453;28;20043;-82
2022/10/14 02:41:17;;;;;;;18.23;11.93;;;;;;;7.30;100.00;100867.53;4952054;28;20043;-81
2022/10/14 02:43:44;;;;;;;19.63;13.03;;;;;;;7.31;100.00;100874.53;4937819;28;20051;-82
2022/10/14 02:46:11;;;;;;;21.20;13.20;;;;;;;7.31;100.00;100871.91;4955165;28;20081;-81
2022/10/14 02:48:38;;;;;;;17.00;11.57;;;;;;;7.32;100.00;100864.03;4955759;28;20465;-80
2022/10/14 02:51:04;;;;;;;17.90;11.67;;;;;;;7.37;100.00;100868.38;4944750;28;20415;-81
2022/10/14 02:53:31;;;;;;;18.10;11.43;;;;;;;7.39;100.00;100862.22;4967607;28;20998;-81
2022/10/14 02:55:58;;;;;;;23.27;12.83;;;;;;;7.42;100.00;100862.25;4952153;28;20050;-81
2022/10/14 02:58:26;;;;;;;18.37;12.23;;;;;;;7.44;100.00;100862.22;4960612;28;20096;-80
2022/10/14 03:00:52;;;;;;;19.43;12.10;;;;;;;7.45;100.00;100862.22;4949587;28;20055;-81
2022/10/14 03:03:20;;;;;;;18.07;11.70;;;;;;;7.45;100.00;100859.59;4942386;28;20042;-81
2022/10/14 03:05:47;;;;;;;18.80;11.77;;;;;;;7.47;100.00;100864.81;4953181;28;20046;-81
2022/10/14 03:08:14;;;;;;;23.37;13.20;;;;;;;7.49;100.00;100861.34;4954885;28;20043;-80
2022/10/14 03:10:40;;;;;;;21.53;13.80;;;;;;;7.52;100.00;100847.28;4946559;28;20059;-80
2022/10/14 03:13:07;;;;;;;20.33;12.10;;;;;;;7.54;100.00;100850.78;4953243;28;20077;-82
2022/10/14 03:15:34;;;;;;;18.93;11.90;;;;;;;7.57;100.00;100845.53;4940648;28;20412;-80
2022/10/14 03:18:00;;;;;;;18.43;11.77;;;;;;;7.57;100.00;100848.16;4955164;28;20031;-79
2022/10/14 03:20:27;;;;;;;20.30;12.13;;;;;;;7.57;100.00;100845.53;4945520;28;20680;-80
2022/10/14 03:22:54;;;;;;;17.57;12.10;;;;;;;7.56;100.00;100841.13;4965148;28;20042;-80
2022/10/14 03:25:20;;;;;;;17.23;11.00;;;;;;;7.57;100.00;100841.13;4948218;28;20065;-79
2022/10/14 03:27:47;;;;;;;16.90;12.07;;;;;;;7.59;100.00;100834.09;4978025;28;20111;-80
2022/10/14 03:30:14;;;;;;;16.33;10.77;;;;;;;7.60;100.00;100835.84;4961803;28;20045;-80
2022/10/14 03:32:40;;;;;;;19.00;10.93;;;;;;;7.61;100.00;100831.47;4949952;28;20038;-80
2022/10/14 03:35:07;;;;;;;17.63;10.83;;;;;;;7.62;100.00;100828.81;4957192;28;20039;-80
2022/10/14 03:37:34;;;;;;;18.07;10.00;;;;;;;7.67;100.00;100827.94;4973558;28;20047;-82
2022/10/14 03:40:04;;;;;;;15.73;10.30;;;;;;;7.65;100.00;100830.59;4947340;28;20049;-80
2022/10/14 03:42:30;;;;;;;15.90;10.20;;;;;;;7.61;100.00;100827.06;4951584;28;20043;-80
2022/10/14 03:44:57;;;;;;;17.70;11.00;;;;;;;7.61;100.00;100828.84;4962605;28;20058;-79
2022/10/14 03:47:23;;;;;;;15.57;10.17;;;;;;;7.59;100.00;100812.19;4971655;23;20047;-78
2022/10/14 03:49:50;;;;;;;15.63;10.00;;;;;;;7.59;100.00;100820.97;4957658;28;20035;-78
2022/10/14 03:52:17;;;;;;;18.33;10.83;;;;;;;7.58;100.00;100813.09;4976332;28;20055;-78
2022/10/14 03:54:44;;;;;;;19.50;11.43;;;;;;;7.58;100.00;100805.19;4959196;28;20041;-78
2022/10/14 03:57:11;;;;;;;14.80;9.37;;;;;;;7.54;100.00;100801.69;4963231;28;20043;-78
2022/10/14 03:59:37;;;;;;;17.87;11.23;;;;;;;7.44;100.00;100801.75;4960513;28;20086;-78
2022/10/14 04:02:04;;;;;;;14.93;10.47;;;;;;;7.35;100.00;100802.69;4958150;28;20074;-78
2022/10/14 04:04:31;;;;;;;17.97;10.63;;;;;;;7.28;100.00;100809.72;4978771;28;20447;-78
2022/10/14 04:06:57;;;;;;;16.77;10.90;;;;;;;7.22;100.00;100816.75;4976854;28;20046;-78
2022/10/14 04:09:26;;;;;;;22.87;13.23;;;;;;;7.20;100.00;100818.53;4977233;28;20130;-78
2022/10/14 04:11:54;;;;;;;21.27;13.83;;;;;;;7.09;100.00;100810.69;4947307;28;20047;-78
2022/10/14 04:14:23;;;;;;;19.67;12.67;;;;;;;7.05;100.00;100811.56;4966230;28;20042;-78
2022/10/14 04:16:50;;;;;;;22.30;13.10;;;;;;;7.05;100.00;100815.06;4979780;28;20035;-78
2022/10/14 04:19:17;;;;;;;19.40;13.07;;;;;;;6.96;100.00;100814.22;4963281;28;20046;-78
2022/10/14 04:21:44;;;;;;;20.17;12.23;;;;;;;6.89;100.00;100823.88;4940137;28;20043;-78
2022/10/14 04:24:11;;;;;;;19.67;12.63;;;;;;;6.86;100.00;100810.75;4954991;28;20039;-78
2022/10/14 04:26:38;;;;;;;24.00;14.27;;;;;;;6.83;100.00;100810.78;4977653;28;20070;-78
2022/10/14 04:29:04;;;;;;;20.10;12.93;;;;;;;6.76;100.00;100822.16;4966208;28;20039;-78
2022/10/14 04:31:31;;;;;;;19.87;12.67;;;;;;;6.72;100.00;100818.66;4977818;28;20106;-78
2022/10/14 04:33:58;;;;;;;25.27;15.33;;;;;;;6.67;100.00;100811.69;4946164;28;20039;-78
2022/10/14 04:36:25;;;;;;;21.03;12.53;;;;;;;6.66;100.00;100809.94;4958839;28;20041;-77
2022/10/14 04:38:51;;;;;;;21.93;13.73;;;;;;;6.62;100.00;100818.69;4941339;28;20054;-78
2022/10/14 04:41:18;;;;;;;22.03;13.07;;;;;;;6.57;100.00;100809.97;4947913;28;20047;-78
2022/10/14 04:43:45;;;;;;;18.73;11.10;;;;;;;6.53;100.00;100814.34;4961869;28;20464;-78
2022/10/14 04:46:12;;;;;;;20.87;12.67;;;;;;;6.53;100.00;100814.34;4955514;28;20047;-78
2022/10/14 04:48:38;;;;;;;15.60;10.80;;;;;;;6.46;100.00;100807.34;4962952;28;20051;-78
2022/10/14 04:51:05;;;;;;;18.80;11.77;;;;;;;6.44;100.00;100802.09;4974403;28;20039;-78
2022/10/14 04:53:31;;;;;;;19.57;12.27;;;;;;;6.41;100.00;100804.72;4960883;29;20047;-78
2022/10/14 04:55:58;;;;;;;17.83;11.70;;;;;;;6.35;100.00;100794.25;4937041;29;20047;-78
2022/10/14 04:58:25;;;;;;;21.90;12.10;;;;;;;6.32;100.00;100794.25;4977097;28;20051;-78
2022/10/14 05:00:53;;;;;;;17.87;11.30;;;;;;;6.30;100.00;100784.59;4963463;28;20038;-78
2022/10/14 05:03:19;;;;;;;20.57;12.17;;;;;;;6.31;100.00;100779.38;4947260;28;20559;-78
2022/10/14 05:05:46;;;;;;;19.23;12.30;;;;;;;6.31;100.00;100782.00;4989619;28;20050;-78
2022/10/14 05:08:13;;;;;;;21.70;12.73;;;;;;;6.33;100.00;100785.50;4970006;28;20043;-77
2022/10/14 05:10:39;;;;;;;20.87;11.80;;;;;;;6.25;100.00;100784.63;4942300;28;20044;-78
2022/10/14 05:13:06;;;;;;;17.07;10.77;;;;;;;6.18;100.00;100781.13;4961954;28;20276;-78
2022/10/14 05:15:33;;;;;;;22.43;13.23;;;;;;;6.11;100.00;100781.13;4944488;28;20109;-78
2022/10/14 05:17:59;;;;;;;17.20;11.30;;;;;;;6.09;100.00;100785.50;4975836;28;20102;-78
2022/10/14 05:20:26;;;;;;;18.80;13.30;;;;;;;6.08;100.00;100787.25;4947767;28;20043;-78
2022/10/14 05:22:52;;;;;;;23.13;13.40;;;;;;;6.07;100.00;100787.28;4942922;28;20389;-77
2022/10/14 05:25:19;;;;;;;21.13;12.73;;;;;;;6.07;100.00;100782.03;4975022;28;20039;-78
2022/10/14 05:27:46;;;;;;;21.03;13.00;;;;;;;6.05;100.00;100783.75;4943590;28;20038;-77
2022/10/14 05:30:13;;;;;;;20.30;13.50;;;;;;;6.05;100.00;100792.50;4949589;28;20090;-77
2022/10/14 05:32:39;;;;;;;23.90;14.50;;;;;;;6.08;100.00;100784.63;4953676;28;20043;-78
2022/10/14 05:35:07;;;;;;;21.37;13.77;;;;;;;6.13;100.00;100789.88;4938076;28;20043;-77
2022/10/14 05:37:34;;;;;;;25.00;13.73;;;;;;;6.19;100.00;100790.75;4953111;28;20039;-76
2022/10/14 05:40:00;;;;;;;24.90;14.67;;;;;;;6.28;100.00;100792.50;4956674;28;20042;-77
2022/10/14 05:42:27;;;;;;;31.00;15.50;;;;;;;6.38;100.00;100788.97;4955259;28;20043;-77
2022/10/14 05:44:53;;;;;;;28.47;17.03;;;;;;;6.53;100.00;100789.84;4963721;28;20663;-77
2022/10/14 05:47:20;;;;;;;29.50;15.20;;;;;;;6.58;100.00;100804.72;4953530;28;20062;-77
2022/10/14 05:49:47;;;;;;;25.90;15.10;;;;;;;6.64;100.00;100799.47;4951439;28;20042;-78
2022/10/14 05:52:13;;;;;;;27.43;15.13;;;;;;;6.73;100.00;100803.81;4953685;28;20047;-77
2022/10/14 05:54:40;;;;;;;22.73;14.73;;;;;;;6.83;100.00;100800.28;4955109;28;20039;-78
2022/10/14 05:57:07;;;;;;;26.53;15.17;;;;;;;6.93;100.00;100809.88;4943948;28;20043;-78
2022/10/14 05:59:33;;;;;;;26.33;16.40;;;;;;;7.00;100.00;100810.72;4958690;28;20093;-78
2022/10/14 06:02:00;;;;;;;25.57;15.30;;;;;;;7.09;100.00;100805.44;4938956;28;20047;-77
2022/10/14 06:04:27;;;;;;;30.87;17.10;;;;;;;7.18;100.00;100809.78;4940073;28;20077;-79
2022/10/14 06:06:54;;;;;;;26.23;16.30;;;;;;;7.26;100.00;100816.75;4971185;28;20050;-78
2022/10/14 06:09:20;;;;;;;29.60;17.73;;;;;;;7.37;100.00;100807.94;4941295;28;20134;-78
2022/10/14 06:11:47;;;;;;;28.57;16.77;;;;;;;7.41;100.00;100800.03;4952493;28;20062;-78
2022/10/14 06:14:14;;;;;;;25.70;15.37;;;;;;;7.51;100.00;100803.47;4939584;28;20547;-78
2022/10/14 06:16:40;;;;;;;28.80;15.67;;;;;;;7.56;100.00;100796.41;4948681;28;20116;-78
2022/10/14 06:19:07;;;;;;;28.50;18.23;;;;;;;7.70;100.00;100806.88;4957435;28;20440;-78
2022/10/14 06:21:33;;;;;;;31.93;18.23;;;;;;;7.76;100.00;100812.09;4956224;28;20074;-78
2022/10/14 06:24:00;;;;;;;28.43;16.13;;;;;;;7.80;100.00;100813.81;4971373;28;20046;-78
2022/10/14 06:26:27;;;;;;;27.30;17.10;;;;;;;7.87;100.00;100816.38;4954981;28;20464;-78
2022/10/14 06:28:53;;;;;;;28.00;17.30;;;;;;;7.94;100.00;100816.34;4953272;28;20042;-78
2022/10/14 06:31:20;;;;;;;29.63;17.37;;;;;;;7.99;100.00;100810.19;4937839;28;20518;-77
2022/10/14 06:33:47;;;;;;;29.43;16.73;;;;;;;8.03;100.00;100808.38;4937268;28;20047;-77
2022/10/14 06:36:14;;;;;;;31.20;18.73;;;;;;;8.06;100.00;100811.84;4957170;28;20039;-78
2022/10/14 06:38:40;;;;;;;24.90;16.83;;;;;;;8.12;100.00;100813.56;4956399;28;20050;-78
2022/10/14 06:41:07;;;;;;;34.57;18.73;;;;;;;8.16;100.00;100821.44;4950462;28;20070;-77
2022/10/14 06:43:34;;;;;;;31.80;17.20;;;;;;;8.19;100.00;100810.88;4930528;28;20499;-78
2022/10/14 06:46:02;;;;;;;28.20;17.10;;;;;;;8.25;100.00;100814.38;4953750;28;20051;-78
2022/10/14 06:48:29;;;;;;;27.97;16.27;;;;;;;8.28;100.00;100809.94;4939287;28;20049;-78
2022/10/14 06:51:00;;;;;;;26.80;16.13;;;;;;;8.33;100.00;100816.03;4940932;28;20132;-78
2022/10/14 06:53:28;;;;;;;30.60;15.90;;;;;;;8.36;100.00;100805.50;4967415;28;20412;-78
2022/10/14 06:56:03;;;;;;;25.37;15.77;;;;;;;8.42;100.00;100802.81;4968391;28;20105;-79
2022/10/14 06:58:30;;;;;;;29.53;17.13;;;;;;;8.48;100.00;100798.38;4956881;28;20043;-78
2022/10/14 07:01:04;;;;;;;31.15;18.25;;;;;;;8.52;100.00;100806.25;4956219;28;20035;-79
2022/10/14 07:03:35;;;;;;;26.77;16.53;;;;;;;8.57;100.00;100812.31;4968881;28;20039;-79
2022/10/14 07:06:03;;;;;;;29.23;17.27;;;;;;;8.60;100.00;100816.69;4972454;28;20117;-78
2022/10/14 07:08:30;;;;;;;26.03;17.20;;;;;;;8.69;100.00;100821.88;4967625;28;20038;-78
2022/10/14 07:10:56;;;;;;;34.22;19.55;;;;;;;8.74;100.00;100820.03;4952824;28;20066;-77
2022/10/14 07:13:24;;;;;;;30.03;18.83;;;;;;;8.77;100.00;100825.31;4931414;28;20125;-78
2022/10/14 07:15:51;;;;;;;28.08;18.13;;;;;;;8.82;100.00;100818.19;4943792;28;20619;-78
2022/10/14 07:18:18;;;;;;;28.58;17.67;;;;;;;8.87;100.00;100820.81;4950873;28;20051;-79
2022/10/14 07:20:44;;;;;;;27.08;16.98;;;;;;;8.89;100.00;100814.63;4967529;28;20066;-77
2022/10/14 07:23:11;;;;;;;24.90;16.92;;;;;;;8.94;100.00;100818.09;4956877;28;20047;-78
2022/10/14 07:25:38;;;;;;;26.65;16.40;;;;;;;8.94;100.00;100812.81;4971221;28;20165;-78
2022/10/14 07:28:05;;;;;;;31.92;18.63;;;;;;;9.00;100.00;100820.66;4935634;28;20098;-78
2022/10/14 07:30:31;;;;;;;28.95;17.95;;;;;;;9.03;100.00;100812.72;4956088;28;20034;-78
2022/10/14 07:32:58;;;;;;;29.00;17.30;;;;;;;9.05;100.00;100819.72;4968575;28;20090;-79
2022/10/14 07:35:28;;;;;;;26.25;15.90;;;;;;;9.06;100.00;100818.81;4954507;28;20042;-78
2022/10/14 07:37:54;;;;;;;22.63;15.13;;;;;;;9.08;100.00;100820.56;4972826;28;20042;-79
2022/10/14 07:40:21;;;;;;;28.80;16.25;;;;;;;9.15;100.00;100818.72;4954532;28;20042;-78
2022/10/14 07:42:48;;;;;;;26.77;17.20;;;;;;;9.19;100.00;100816.03;4971814;28;20436;-79
2022/10/14 07:45:17;;;;;;;31.23;18.13;;;;;;;9.29;100.00;100819.44;4971917;28;20085;-78
2022/10/14 07:47:46;;;;;;;29.02;17.00;;;;;;;9.32;100.00;100828.16;4966801;28;20038;-78
2022/10/14 07:50:12;;;;;;;27.98;18.27;;;;;;;9.47;100.00;100829.72;4955749;28;20039;-79
2022/10/14 07:52:39;;;;;;;28.67;16.33;;;;;;;9.41;100.00;100829.81;4967774;28;20488;-78
2022/10/14 07:55:06;;;;;;;26.67;16.40;;;;;;;9.39;100.00;100839.50;4984954;28;20039;-78
2022/10/14 07:57:33;;;;;;;25.88;15.48;;;;;;;9.40;100.00;100833.34;4964642;28;20102;-78
2022/10/14 07:59:59;;;;;;;29.42;16.85;;;;;;;9.52;100.00;100842.88;4939489;28;20089;-78
2022/10/14 08:02:26;;;;;;;25.50;16.98;;;;;;;9.52;100.00;100838.47;4955857;28;20039;-78
2022/10/14 08:04:54;;;;;;;30.38;17.33;;;;;;;9.60;100.00;100841.00;4956062;28;20171;-79
2022/10/14 08:07:33;;;;;;;25.95;15.27;;;;;;;9.55;100.00;100842.81;4956652;28;20047;-78
2022/10/14 08:10:00;;;;;;;30.17;16.88;;;;;;;9.53;100.00;100842.84;4958012;28;20093;-77
2022/10/14 08:12:27;;;;;;;27.83;17.75;;;;;;;9.60;100.00;100841.00;4974655;28;20042;-78
2022/10/14 08:14:56;;;;;;;28.83;17.80;;;;;;;9.70;100.00;100832.06;4954526;28;20058;-79
2022/10/14 08:17:22;;;;;;;30.20;18.83;;;;;;;9.86;100.00;100833.59;4968036;28;20051;-79
2022/10/14 08:19:49;;;;;;;28.65;16.80;;;;;;;9.90;100.00;100831.75;4940709;28;20472;-78
2022/10/14 08:22:16;;;;;;;26.90;16.70;;;;;;;9.98;100.00;100831.66;4972071;28;20054;-78
2022/10/14 08:24:43;;;;;;;21.60;14.88;;;;;;;10.04;100.00;100821.00;4965605;28;20066;-79
2022/10/14 08:27:09;;;;;;;25.15;15.55;;;;;;;10.19;100.00;100826.03;4957925;28;20113;-79
2022/10/14 08:29:36;;;;;;;25.88;15.88;;;;;;;10.31;100.00;100825.00;4977003;28;20042;-78
2022/10/14 08:32:03;;;;;;;24.63;15.82;;;;;;;10.60;100.00;100816.56;4956025;28;20081;-79
2022/10/14 08:34:30;;;;;;;28.85;16.70;;;;;;;10.63;100.00;100814.75;4943043;28;20039;-79
2022/10/14 08:36:56;;;;;;;27.80;15.88;;;;;;;10.79;100.00;100817.09;4972887;28;20039;-77
2022/10/14 08:39:23;;;;;;;21.80;14.77;;;;;;;10.84;100.00;100799.38;4957188;28;20065;-77
2022/10/14 08:42:08;;;;;;;23.77;14.43;;;;;;;10.93;100.00;100793.91;4958826;28;20035;-79
2022/10/14 08:44:50;;;;;;;27.52;16.92;;;;;;;11.00;100.00;100806.09;4973251;28;20051;-78
2022/10/14 08:47:23;;;;;;;25.33;16.27;;;;;;;11.11;100.00;100809.41;4955269;28;20042;-78
2022/10/14 08:50:00;;;;;;;23.55;14.88;;;;;;;11.18;100.00;100811.03;4965319;28;20398;-78
2022/10/14 08:52:31;;;;;;;24.05;16.08;;;;;;;11.35;100.00;100802.75;4971459;28;20050;-79
2022/10/14 08:55:13;;;;;;;25.58;14.82;;;;;;;11.48;100.00;100800.69;4968267;28;20114;-78
2022/10/14 08:57:48;;;;;;;25.33;15.05;;;;;;;11.43;100.00;100799.91;4971810;28;20035;-79
2022/10/14 09:00:15;;;;;;;21.17;13.63;;;;;;;11.51;100.00;100793.56;4979621;28;20038;-79
2022/10/14 09:02:46;;;;;;;24.20;15.20;;;;;;;11.61;100.00;100802.19;4965671;28;20035;-77
2022/10/14 09:05:18;;;;;;;21.80;14.25;;;;;;;11.67;100.00;100802.03;4957962;28;20047;-79
2022/10/14 09:07:46;;;;;;;21.48;13.77;;;;;;;11.74;100.00;100803.63;4955097;28;20042;-77
2022/10/14 09:10:26;;;;;;;22.27;14.40;;;;;;;11.56;100.00;100793.47;4960215;28;20073;-77
2022/10/14 09:12:55;;;;;;;20.67;12.50;;;;;;;11.50;100.00;100798.88;4957930;28;20043;-79
2022/10/14 09:15:29;;;;;;;22.52;12.70;;;;;;;11.55;100.00;100799.66;4960082;28;20039;-77
2022/10/14 09:18:04;;;;;;;20.30;13.55;;;;;;;11.69;100.00;100797.59;4974043;28;20543;-79
2022/10/14 09:20:35;;;;;;;20.33;13.57;;;;;;;11.99;100.00;100803.09;4988133;28;20046;-78
2022/10/14 09:23:19;;;;;;;21.23;14.57;;;;;;;12.39;100.00;100797.69;4951989;28;20046;-78
2022/10/14 09:26:04;;;;;;;21.20;13.43;;;;;;;12.81;100.00;100789.50;4949180;28;20043;-79
2022/10/14 09:28:36;;;;;;;18.83;12.70;;;;;;;12.99;100.00;100786.31;4956774;28;20039;-79
2022/10/14 09:31:05;;;;;;;19.08;13.15;;;;;;;13.32;100.00;100784.50;4971711;28;20062;-78
2022/10/14 09:33:33;;;;;;;22.23;12.63;;;;;;;13.56;100.00;100787.34;4957144;28;20106;-79
2022/10/14 09:36:16;;;;;;;18.95;11.38;;;;;;;13.36;100.00;100791.44;4953174;28;20511;-78
2022/10/14 09:38:52;;;;;;;20.35;13.18;;;;;;;13.43;100.00;100787.69;4966883;28;20054;-79
2022/10/14 09:41:23;;;;;;;17.77;12.38;;;;;;;13.46;100.00;100784.97;4956421;28;20479;-79
2022/10/14 09:44:17;;;;;;;17.08;11.60;;;;;;;13.72;100.00;100788.63;4975905;28;20089;-78
2022/10/14 09:46:50;;;;;;;20.02;11.75;;;;;;;13.90;100.00;100788.03;4935490;28;20039;-77
2022/10/14 09:49:22;;;;;;;19.98;12.35;;;;;;;14.04;100.00;100776.94;4971255;28;20053;-76
2022/10/14 09:51:50;;;;;;;20.42;11.43;;;;;;;14.11;100.00;100783.78;5010568;23;20047;-80
2022/10/14 09:54:23;;;;;;;16.50;10.93;;;;;;;14.31;100.00;100783.13;4950581;28;20067;-80
2022/10/14 09:56:58;;;;;;;15.65;11.32;;;;;;;14.55;100.00;100776.16;4956225;28;20034;-80
2022/10/14 09:59:25;;;;;;;15.55;10.50;;;;;;;14.80;100.00;100774.34;4965893;28;20077;-80
2022/10/14 10:01:53;;;;;;;16.58;10.35;;;;;;;15.14;100.00;100775.78;4923390;29;20117;-80
2022/10/14 10:04:48;;;;;;;14.32;10.07;;;;;;;15.24;99.30;100774.50;4920659;28;20043;-81
2022/10/14 10:07:25;;;;;;;15.77;10.00;;;;;;;15.39;99.23;100773.91;4936985;29;20043;-81
2022/10/14 10:09:57;;;;;;;13.05;9.75;;;;;;;15.49;98.11;100766.44;4952796;28;20043;-80
2022/10/14 10:12:34;;;;;;;14.80;9.70;;;;;;;15.58;98.99;100759.88;4941912;28;20047;-82
2022/10/14 10:15:15;;;;;;;12.52;8.80;;;;;;;15.62;96.79;100756.19;4930853;28;20075;-83
2022/10/14 10:17:43;;;;;;;14.05;9.18;;;;;;;15.68;94.97;100754.16;4950090;28;20047;-84
2022/10/14 10:20:32;;;;;;;13.35;8.43;;;;;;;15.65;95.64;100750.75;4937334;28;20564;-84
2022/10/14 10:23:27;;;;;;;12.07;8.13;;;;;;;15.66;95.90;100742.69;4947569;28;20075;-84
2022/10/14 10:25:54;;;;;;;11.85;7.97;;;;;;;15.60;98.01;100736.72;4913778;28;20121;-84
2022/10/14 10:28:26;;;;;;;11.95;8.55;;;;;;;15.58;98.54;100736.78;4957636;28;20039;-84
2022/10/14 10:30:59;;;;;;;12.13;8.80;;;;;;;15.56;98.13;100735.97;4938776;28;20281;-85
2022/10/14 10:33:45;;;;;;;11.55;8.15;;;;;;;15.49;97.44;100738.00;4939257;28;20122;-85
2022/10/14 10:36:33;;;;;;;12.75;7.70;;;;;;;15.39;97.03;100735.78;4923216;29;20036;-85
2022/10/14 10:39:19;;;;;;;13.23;8.45;;;;;;;15.52;97.41;100745.00;4916081;29;20047;-87
2022/10/14 10:42:24;;;;;;;9.75;7.28;;;;;;;15.43;98.30;100734.72;4921437;29;21072;-86
2022/10/14 10:45:05;;;;;;;16.77;8.10;;;;;;;15.42;100.00;100744.50;4933702;28;20121;-84
2022/10/14 10:47:44;;;;;;;9.98;7.13;;;;;;;15.37;93.98;100735.81;4955412;28;20074;-84
2022/10/14 10:50:28;;;;;;;13.52;7.72;;;;;;;15.54;93.56;100737.81;4927578;28;20077;-86
2022/10/14 10:53:16;;;;;;;12.45;7.55;;;;;;;15.40;93.47;100740.19;4934321;29;20523;-83
2022/10/14 10:55:54;;;;;;;13.18;8.15;;;;;;;15.44;95.71;100731.13;4951975;28;20114;-85
2022/10/14 10:58:34;;;;;;;8.68;6.40;;;;;;;15.33;97.85;100742.19;4954688;28;20051;-86
2022/10/14 11:01:18;;;;;;;9.98;6.43;;;;;;;15.45;95.09;100730.19;4957224;28;20400;-85
2022/10/14 11:03:58;;;;;;;12.75;6.93;;;;;;;15.42;97.10;100730.31;4918377;29;20071;-85
2022/10/14 11:12:27;;;;;;;10.70;6.35;;;;;;;15.66;93.34;100715.19;4933317;28;20043;-82
2022/10/14 11:15:03;;;;;;;10.65;7.72;;;;;;;15.75;93.18;100712.16;4928688;29;20046;-83
2022/10/14 11:17:42;;;;;;;12.98;7.15;;;;;;;15.85;90.87;100725.97;4957632;28;20046;-82
2022/10/14 11:20:35;;;;;;;12.13;7.32;;;;;;;15.71;92.84;100724.72;4926375;28;20055;-82
2022/10/14 11:23:38;;;;;;;10.55;7.22;;;;;;;15.67;92.84;100717.81;4933864;29;20051;-83
2022/10/14 11:26:13;;;;;;;11.07;6.75;;;;;;;15.66;93.22;100707.22;4953859;28;20055;-84
2022/10/14 11:28:50;;;;;;;10.73;6.50;;;;;;;15.65;94.41;100695.69;4918575;29;20448;-80
2022/10/14 11:31:31;;;;;;;9.43;6.72;;;;;;;15.75;93.54;100699.72;4959502;28;20561;-82